createdAt,value
2022-10-22T00:01:57.450Z,13.70
2022-10-22T00:07:36.881Z,13.80
2022-10-22T00:10:24.289Z,13.80
2022-10-22T00:13:12.238Z,13.90
2022-10-22T00:15:59.668Z,13.90
2022-10-22T00:18:48.114Z,13.90
2022-10-22T00:21:34.955Z,13.90
2022-10-22T00:24:22.129Z,13.90
2022-10-22T00:27:10.595Z,13.90
2022-10-22T00:29:57.526Z,13.90
2022-10-22T00:32:44.520Z,13.90
2022-10-22T00:35:33.710Z,13.90
2022-10-22T00:38:21.069Z,13.90
2022-10-22T00:41:08.089Z,13.90
2022-10-22T00:43:58.040Z,13.90
2022-10-22T00:46:45.528Z,13.90
2022-10-22T00:49:33.482Z,13.90
2022-10-22T00:52:22.921Z,13.80
2022-10-22T00:55:10.811Z,13.80
2022-10-22T00:57:59.089Z,13.80
2022-10-22T01:00:46.137Z,13.80
2022-10-22T01:03:34.198Z,13.80
2022-10-22T01:06:27.282Z,13.70
2022-10-22T01:09:22.703Z,13.70
2022-10-22T01:12:16.299Z,13.70
2022-10-22T01:15:11.630Z,13.80
2022-10-22T01:18:03.782Z,13.80
2022-10-22T01:21:01.971Z,13.70
2022-10-22T01:24:20.678Z,13.70
2022-10-22T01:27:22.426Z,13.70
2022-10-22T01:30:13.386Z,13.70
2022-10-22T01:33:04.528Z,13.70
2022-10-22T01:35:53.351Z,13.70
2022-10-22T01:38:42.381Z,13.70
2022-10-22T01:41:29.903Z,13.70
2022-10-22T01:44:25.977Z,13.60
2022-10-22T01:47:22.263Z,13.70
2022-10-22T01:50:33.357Z,13.70
2022-10-22T01:53:27.724Z,13.60
2022-10-22T01:56:26.785Z,13.60
2022-10-22T01:59:23.372Z,13.60
2022-10-22T02:02:20.432Z,13.60
2022-10-22T02:05:11.458Z,13.60
2022-10-22T02:08:02.537Z,13.60
2022-10-22T02:10:50.957Z,13.60
2022-10-22T02:13:42.753Z,13.50
2022-10-22T02:16:34.508Z,13.60
2022-10-22T02:19:27.078Z,13.50
2022-10-22T02:22:14.591Z,13.50
2022-10-22T02:25:01.731Z,13.60
2022-10-22T02:27:52.703Z,13.50
2022-10-22T02:30:43.489Z,13.50
2022-10-22T02:33:34.972Z,13.50
2022-10-22T02:36:24.671Z,13.50
2022-10-22T02:39:13.861Z,13.50
2022-10-22T02:42:02.846Z,13.50
2022-10-22T02:44:49.998Z,13.50
2022-10-22T02:47:37.153Z,13.50
2022-10-22T02:50:24.507Z,13.40
2022-10-22T02:53:13.068Z,13.40
2022-10-22T02:55:59.967Z,13.40
2022-10-22T02:58:46.947Z,13.40
2022-10-22T03:01:33.848Z,13.40
2022-10-22T03:04:20.951Z,13.40
2022-10-22T03:07:07.860Z,13.40
2022-10-22T03:09:56.429Z,13.40
2022-10-22T03:12:43.563Z,13.30
2022-10-22T03:15:30.774Z,13.40
2022-10-22T03:18:18.433Z,13.40
2022-10-22T03:21:12.068Z,13.40
2022-10-22T03:24:00.625Z,13.40
2022-10-22T03:26:51.880Z,13.40
2022-10-22T03:29:40.423Z,13.40
2022-10-22T03:32:27.647Z,13.40
2022-10-22T03:35:14.529Z,13.30
2022-10-22T03:38:02.366Z,13.40
2022-10-22T03:40:49.894Z,13.30
2022-10-22T03:43:39.042Z,13.30
2022-10-22T03:46:26.102Z,13.30
2022-10-22T03:49:12.918Z,13.30
2022-10-22T03:52:05.664Z,13.30
2022-10-22T03:54:52.995Z,13.30
2022-10-22T03:57:40.460Z,13.30
2022-10-22T04:00:29.347Z,13.20
2022-10-22T04:03:16.814Z,13.20
2022-10-22T04:06:04.309Z,13.20
2022-10-22T04:08:51.347Z,13.20
2022-10-22T04:11:38.450Z,13.20
2022-10-22T04:14:25.910Z,13.20
2022-10-22T04:17:14.389Z,13.20
2022-10-22T04:20:01.773Z,13.20
2022-10-22T04:22:48.726Z,13.20
2022-10-22T04:25:35.646Z,13.20
2022-10-22T04:28:22.626Z,13.10
2022-10-22T04:31:11.180Z,13.10
2022-10-22T04:34:01.751Z,13.10
2022-10-22T04:36:48.894Z,13.20
2022-10-22T04:39:35.814Z,13.10
2022-10-22T04:42:23.056Z,13.10
2022-10-22T04:45:11.359Z,13.10
2022-10-22T04:47:58.205Z,13.10
2022-10-22T04:50:46.702Z,13.10
2022-10-22T04:53:35.534Z,13.10
2022-10-22T04:56:24.931Z,13.10
2022-10-22T04:59:13.593Z,13.10
2022-10-22T05:02:00.694Z,13.10
2022-10-22T05:04:47.989Z,13.10
2022-10-22T05:07:36.561Z,13.10
2022-10-22T05:10:23.289Z,13.00
2022-10-22T05:13:10.202Z,13.00
2022-10-22T05:15:57.236Z,13.00
2022-10-22T05:18:45.638Z,12.90
2022-10-22T05:21:33.094Z,12.90
2022-10-22T05:24:21.858Z,12.80
2022-10-22T05:27:08.963Z,12.90
2022-10-22T05:29:55.813Z,12.90
2022-10-22T05:32:43.073Z,12.90
2022-10-22T05:35:30.299Z,12.90
2022-10-22T05:38:18.151Z,12.90
2022-10-22T05:41:08.336Z,12.80
2022-10-22T05:43:56.545Z,12.90
2022-10-22T05:46:44.191Z,12.80
2022-10-22T05:49:30.881Z,12.80
2022-10-22T05:52:18.072Z,12.80
2022-10-22T05:55:06.122Z,12.80
2022-10-22T05:57:54.503Z,12.80
2022-10-22T06:00:41.891Z,12.70
2022-10-22T06:03:29.767Z,12.70
2022-10-22T06:06:21.046Z,12.80
2022-10-22T06:09:16.002Z,12.80
2022-10-22T06:12:03.321Z,12.80
2022-10-22T06:14:52.197Z,12.70
2022-10-22T06:17:39.350Z,12.70
2022-10-22T06:20:26.578Z,12.70
2022-10-22T06:23:13.659Z,12.70
2022-10-22T06:26:01.723Z,12.70
2022-10-22T06:28:49.047Z,12.70
2022-10-22T06:31:37.669Z,12.70
2022-10-22T06:34:25.211Z,12.80
2022-10-22T06:37:13.816Z,12.80
2022-10-22T06:40:01.149Z,12.80
2022-10-22T06:42:48.477Z,12.80
2022-10-22T06:45:35.714Z,12.80
2022-10-22T06:48:24.411Z,12.90
2022-10-22T06:51:13.075Z,12.90
2022-10-22T06:54:00.350Z,12.90
2022-10-22T06:56:47.465Z,12.90
2022-10-22T06:59:34.874Z,12.90
2022-10-22T07:02:22.079Z,12.90
2022-10-22T07:05:10.981Z,13.00
2022-10-22T07:07:58.127Z,13.00
2022-10-22T07:10:45.338Z,13.00
2022-10-22T07:13:32.290Z,13.10
2022-10-22T07:16:19.936Z,13.10
2022-10-22T07:19:06.999Z,13.10
2022-10-22T07:21:55.553Z,13.20
2022-10-22T07:24:42.771Z,13.20
2022-10-22T07:27:30.144Z,13.30
2022-10-22T07:30:17.639Z,13.30
2022-10-22T07:33:05.115Z,13.40
2022-10-22T07:35:52.075Z,13.40
2022-10-22T07:38:40.978Z,13.40
2022-10-22T07:41:29.443Z,13.50
2022-10-22T07:44:16.849Z,13.60
2022-10-22T07:47:04.106Z,13.60
2022-10-22T07:49:51.273Z,13.70
2022-10-22T07:52:38.931Z,13.80
2022-10-22T07:55:27.567Z,13.80
2022-10-22T07:58:14.826Z,13.80
2022-10-22T08:01:05.631Z,13.80
2022-10-22T08:03:53.030Z,13.70
2022-10-22T08:06:41.075Z,13.80
2022-10-22T08:09:30.527Z,13.80
2022-10-22T08:12:18.972Z,13.90
2022-10-22T08:15:07.165Z,13.90
2022-10-22T08:17:54.873Z,13.90
2022-10-22T08:20:42.909Z,13.90
2022-10-22T08:23:30.121Z,13.90
2022-10-22T08:26:17.141Z,14.00
2022-10-22T08:29:05.837Z,14.00
2022-10-22T08:31:53.210Z,14.00
2022-10-22T08:34:40.482Z,14.10
2022-10-22T08:37:27.607Z,14.10
2022-10-22T08:40:23.959Z,14.10
2022-10-22T08:43:35.385Z,14.10
2022-10-22T08:46:39.015Z,14.10
2022-10-22T08:49:29.197Z,14.10
2022-10-22T08:52:19.119Z,14.10
2022-10-22T08:55:06.589Z,14.10
2022-10-22T08:58:01.882Z,14.20
2022-10-22T09:00:56.517Z,14.20
2022-10-22T09:03:51.146Z,14.30
2022-10-22T09:06:40.474Z,14.40
2022-10-22T09:09:32.627Z,14.50
2022-10-22T09:12:21.439Z,14.60
2022-10-22T09:15:13.963Z,14.60
2022-10-22T09:18:14.925Z,14.70
2022-10-22T09:21:14.562Z,14.90
2022-10-22T09:24:07.002Z,15.00
2022-10-22T09:26:54.149Z,15.10
2022-10-22T09:29:41.609Z,15.10
2022-10-22T09:32:29.947Z,15.10
2022-10-22T09:35:25.193Z,15.20
2022-10-22T09:38:17.007Z,15.20
2022-10-22T09:41:04.958Z,15.30
2022-10-22T09:43:52.466Z,15.30
2022-10-22T09:46:43.971Z,15.30
2022-10-22T09:49:34.114Z,15.30
2022-10-22T09:52:29.370Z,15.40
2022-10-22T09:55:19.647Z,15.40
2022-10-22T09:58:11.589Z,15.40
2022-10-22T10:01:01.239Z,15.60
2022-10-22T10:03:50.154Z,15.60
2022-10-22T10:06:39.020Z,15.70
2022-10-22T10:09:27.822Z,15.80
2022-10-22T10:12:29.104Z,15.70
2022-10-22T10:15:24.009Z,15.70
2022-10-22T10:18:23.958Z,15.80
2022-10-22T10:21:19.574Z,15.70
2022-10-22T10:24:17.834Z,15.70
2022-10-22T10:27:12.460Z,15.70
2022-10-22T10:30:06.778Z,15.70
2022-10-22T10:33:10.959Z,15.70
2022-10-22T10:36:04.932Z,15.70
2022-10-22T10:38:59.656Z,15.70
2022-10-22T10:41:57.175Z,15.70
2022-10-22T10:44:55.995Z,15.80
2022-10-22T10:48:10.869Z,15.80
2022-10-22T10:51:08.615Z,15.90
2022-10-22T10:54:07.582Z,16.00
2022-10-22T10:56:58.553Z,16.00
2022-10-22T10:59:55.620Z,16.00
2022-10-22T11:03:23.474Z,16.00
2022-10-22T11:06:13.097Z,16.20
2022-10-22T11:09:06.427Z,16.40
2022-10-22T11:11:58.175Z,16.50
2022-10-22T11:14:55.951Z,16.80
2022-10-22T11:17:48.351Z,16.90
2022-10-22T11:20:47.163Z,16.70
2022-10-22T11:23:40.879Z,17.00
2022-10-22T11:26:38.480Z,17.20
2022-10-22T11:29:30.713Z,17.40
2022-10-22T11:32:22.684Z,17.50
2022-10-22T11:35:13.709Z,17.40
2022-10-22T11:38:05.542Z,17.50
2022-10-22T11:40:57.236Z,17.60
2022-10-22T11:43:59.582Z,17.60
2022-10-22T11:46:54.629Z,17.50
2022-10-22T11:49:47.191Z,17.40
2022-10-22T11:52:48.526Z,17.50
2022-10-22T11:55:47.911Z,17.60
2022-10-22T11:58:42.197Z,17.40
2022-10-22T12:01:40.764Z,17.40
2022-10-22T12:04:42.171Z,17.30
2022-10-22T12:07:35.177Z,17.20
2022-10-22T12:10:25.862Z,17.30
2022-10-22T12:13:22.478Z,17.40
2022-10-22T12:16:14.242Z,17.50
2022-10-22T12:19:06.366Z,17.60
2022-10-22T12:21:55.486Z,17.50
2022-10-22T12:24:45.471Z,17.70
2022-10-22T12:27:36.985Z,17.60
2022-10-22T12:30:27.186Z,17.70
2022-10-22T12:33:20.707Z,17.70
2022-10-22T12:36:08.082Z,17.80
2022-10-22T12:38:55.811Z,17.70
2022-10-22T12:41:43.585Z,17.90
2022-10-22T12:44:33.437Z,17.80
2022-10-22T12:47:22.841Z,17.80
2022-10-22T12:50:20.033Z,17.80
2022-10-22T12:53:07.966Z,17.90
2022-10-22T12:55:57.495Z,17.90
2022-10-22T12:58:47.759Z,18.00
2022-10-22T13:01:38.589Z,18.00
2022-10-22T13:04:38.111Z,18.00
2022-10-22T13:07:25.774Z,18.10
2022-10-22T13:10:20.350Z,18.00
2022-10-22T13:13:07.933Z,18.00
2022-10-22T13:15:56.823Z,18.00
2022-10-22T13:18:44.893Z,18.00
2022-10-22T13:21:39.119Z,18.00
2022-10-22T13:24:26.399Z,18.10
2022-10-22T13:27:13.450Z,18.00
2022-10-22T13:30:04.722Z,18.20
2022-10-22T13:32:53.804Z,18.20
2022-10-22T13:35:41.056Z,18.20
2022-10-22T13:38:30.074Z,18.20
2022-10-22T13:41:23.526Z,18.20
2022-10-22T13:44:10.353Z,18.20
2022-10-22T13:46:57.147Z,18.20
2022-10-22T13:49:44.374Z,18.20
2022-10-22T13:52:37.482Z,18.20
2022-10-22T13:55:28.956Z,18.10
2022-10-22T14:01:19.572Z,18.20
2022-10-22T14:04:08.649Z,18.20
2022-10-22T14:06:57.664Z,18.20
2022-10-22T14:09:47.064Z,18.20
2022-10-22T14:12:35.643Z,18.20
2022-10-22T14:15:24.712Z,18.20
2022-10-22T14:18:16.411Z,18.20
2022-10-22T14:21:07.306Z,18.20
2022-10-22T14:23:54.498Z,18.30
2022-10-22T14:26:41.681Z,18.20
2022-10-22T14:29:30.181Z,18.20
2022-10-22T14:32:20.214Z,18.20
2022-10-22T14:35:07.869Z,18.20
2022-10-22T14:37:55.337Z,18.20
2022-10-22T14:40:43.804Z,18.20
2022-10-22T14:43:31.972Z,18.20
2022-10-22T14:46:20.682Z,18.20
2022-10-22T14:49:07.547Z,18.10
2022-10-22T14:51:54.871Z,18.00
2022-10-22T14:54:42.063Z,18.00
2022-10-22T14:57:29.267Z,17.90
2022-10-22T15:00:18.441Z,17.90
2022-10-22T15:03:07.304Z,17.80
2022-10-22T15:05:55.727Z,17.80
2022-10-22T15:08:42.659Z,17.80
2022-10-22T15:11:29.977Z,17.80
2022-10-22T15:14:17.207Z,17.80
2022-10-22T15:17:04.364Z,17.70
2022-10-22T15:19:53.130Z,17.70
2022-10-22T15:22:40.830Z,17.60
2022-10-22T15:25:28.626Z,17.60
2022-10-22T15:28:15.492Z,17.60
2022-10-22T15:31:02.551Z,17.50
2022-10-22T15:33:49.702Z,17.40
2022-10-22T15:36:38.520Z,17.40
2022-10-22T15:39:25.901Z,17.30
2022-10-22T15:42:14.465Z,17.30
2022-10-22T15:45:02.203Z,17.20
2022-10-22T15:47:50.442Z,17.10
2022-10-22T15:50:39.685Z,17.00
2022-10-22T15:53:28.605Z,16.90
2022-10-22T15:56:15.737Z,16.80
2022-10-22T15:59:04.023Z,16.70
2022-10-22T16:01:51.652Z,16.60
2022-10-22T16:04:39.149Z,16.50
2022-10-22T16:07:26.187Z,16.40
2022-10-22T16:10:14.413Z,16.30
2022-10-22T16:13:01.414Z,16.20
2022-10-22T16:15:48.766Z,16.00
2022-10-22T16:18:35.816Z,15.90
2022-10-22T16:21:24.199Z,15.80
2022-10-22T16:24:12.733Z,15.70
2022-10-22T16:27:01.155Z,15.50
2022-10-22T16:29:48.922Z,15.40
2022-10-22T16:32:35.854Z,15.30
2022-10-22T16:35:22.949Z,15.30
2022-10-22T16:38:11.253Z,15.10
2022-10-22T16:41:08.258Z,15.10
2022-10-22T16:43:56.961Z,15.00
2022-10-22T16:46:44.449Z,14.80
2022-10-22T16:49:31.599Z,14.60
2022-10-22T16:52:18.835Z,14.70
2022-10-22T16:55:06.925Z,14.60
2022-10-22T16:57:54.344Z,14.60
2022-10-22T17:00:42.965Z,14.50
2022-10-22T17:03:30.037Z,14.40
2022-10-22T17:06:17.106Z,14.40
2022-10-22T17:09:04.504Z,14.30
2022-10-22T17:11:51.742Z,14.30
2022-10-22T17:14:39.275Z,14.40
2022-10-22T17:17:27.840Z,14.30
2022-10-22T17:20:15.146Z,14.20
2022-10-22T17:23:02.102Z,14.20
2022-10-22T17:25:49.314Z,14.30
2022-10-22T17:28:37.341Z,14.30
2022-10-22T17:31:26.963Z,14.30
2022-10-22T17:34:18.354Z,14.40
2022-10-22T17:37:05.875Z,14.40
2022-10-22T17:39:53.298Z,14.40
2022-10-22T17:42:40.778Z,14.30
2022-10-22T17:45:28.103Z,14.30
2022-10-22T17:48:15.156Z,14.30
2022-10-22T17:51:07.229Z,14.30
2022-10-22T17:53:54.875Z,14.40
2022-10-22T17:56:41.919Z,14.40
2022-10-22T17:59:29.183Z,14.50
2022-10-22T18:02:18.161Z,14.50
2022-10-22T18:05:05.755Z,14.50
2022-10-22T18:07:57.016Z,14.50
2022-10-22T18:10:44.324Z,14.50
2022-10-22T18:13:31.713Z,14.60
2022-10-22T18:16:19.757Z,14.60
2022-10-22T18:19:06.857Z,14.70
2022-10-22T18:21:54.063Z,14.60
2022-10-22T18:24:42.713Z,14.60
2022-10-22T18:27:30.103Z,14.50
2022-10-22T18:30:17.503Z,14.50
2022-10-22T18:33:05.026Z,14.50
2022-10-22T18:35:53.168Z,14.50
2022-10-22T18:38:40.159Z,14.50
2022-10-22T18:41:30.862Z,14.60
2022-10-22T18:44:18.356Z,14.50
2022-10-22T18:47:06.186Z,14.50
2022-10-22T18:49:53.382Z,14.50
2022-10-22T18:52:40.916Z,14.50
2022-10-22T18:55:27.838Z,14.50
2022-10-22T18:58:17.753Z,14.50
2022-10-22T19:01:08.431Z,14.50
2022-10-22T19:03:56.250Z,14.40
2022-10-22T19:06:45.793Z,14.40
2022-10-22T19:09:33.216Z,14.30
2022-10-22T19:12:21.626Z,14.30
2022-10-22T19:15:11.567Z,14.20
2022-10-22T19:17:58.629Z,14.20
2022-10-22T19:20:48.258Z,14.20
2022-10-22T19:23:35.813Z,14.20
2022-10-22T19:26:26.217Z,14.20
2022-10-22T19:29:16.042Z,14.20
2022-10-22T19:32:04.695Z,14.20
2022-10-22T19:34:51.798Z,14.20
2022-10-22T19:37:39.231Z,14.20
2022-10-22T19:40:27.228Z,14.20
2022-10-22T19:43:18.195Z,14.20
2022-10-22T19:46:07.065Z,14.20
2022-10-22T19:48:57.122Z,14.20
2022-10-22T19:51:44.339Z,14.20
2022-10-22T19:54:31.484Z,14.20
2022-10-22T19:57:19.697Z,14.10
2022-10-22T20:00:07.938Z,14.00
2022-10-22T20:02:56.613Z,14.00
2022-10-22T20:05:44.976Z,13.90
2022-10-22T20:08:35.777Z,13.90
2022-10-22T20:11:25.602Z,13.90
2022-10-22T20:14:13.808Z,13.90
2022-10-22T20:17:01.005Z,14.00
2022-10-22T20:19:48.373Z,14.00
2022-10-22T20:22:37.047Z,14.10
2022-10-22T20:25:23.992Z,14.10
2022-10-22T20:28:11.947Z,14.10
2022-10-22T20:30:59.269Z,14.10
2022-10-22T20:33:46.401Z,14.10
2022-10-22T20:36:34.141Z,14.20
2022-10-22T20:39:22.688Z,14.20
2022-10-22T20:42:09.550Z,14.20
2022-10-22T20:44:56.621Z,14.30
2022-10-22T20:47:51.366Z,14.30
2022-10-22T20:50:45.313Z,14.30
2022-10-22T20:53:32.477Z,14.30
2022-10-22T20:56:21.076Z,14.30
2022-10-22T20:59:10.930Z,14.40
2022-10-22T21:01:58.314Z,14.40
2022-10-22T21:04:46.394Z,14.40
2022-10-22T21:07:33.799Z,14.50
2022-10-22T21:10:20.523Z,14.50
2022-10-22T21:13:09.214Z,14.50
2022-10-22T21:15:56.116Z,14.50
2022-10-22T21:18:43.390Z,14.50
2022-10-22T21:21:30.421Z,14.50
2022-10-22T21:24:17.231Z,14.50
2022-10-22T21:27:04.332Z,14.50
2022-10-22T21:29:52.970Z,14.50
2022-10-22T21:32:40.654Z,14.50
2022-10-22T21:35:28.414Z,14.50
2022-10-22T21:38:15.678Z,14.50
2022-10-22T21:41:05.911Z,14.50
2022-10-22T21:43:53.008Z,14.50
2022-10-22T21:46:41.355Z,14.50
2022-10-22T21:49:28.593Z,14.50
2022-10-22T21:52:15.978Z,14.50
2022-10-22T21:55:02.863Z,14.50
2022-10-22T21:57:50.141Z,14.60
2022-10-22T22:00:37.513Z,14.50
2022-10-22T22:03:25.941Z,14.60
2022-10-22T22:06:13.442Z,14.60
2022-10-22T22:09:00.834Z,14.50
2022-10-22T22:11:47.949Z,14.50
2022-10-22T22:14:35.047Z,14.50
2022-10-22T22:17:22.197Z,14.50
2022-10-22T22:20:11.644Z,14.40
2022-10-22T22:22:58.855Z,14.40
2022-10-22T22:25:46.037Z,14.40
2022-10-22T22:28:34.796Z,14.30
2022-10-22T22:31:24.803Z,14.20
2022-10-22T22:34:14.065Z,14.20
2022-10-22T22:37:02.132Z,14.10
2022-10-22T22:39:49.098Z,14.00
2022-10-22T22:42:36.152Z,14.00
2022-10-22T22:45:23.041Z,13.90
2022-10-22T22:48:09.950Z,13.90
2022-10-22T22:50:57.260Z,13.80
2022-10-22T22:53:45.907Z,13.80
2022-10-22T22:56:34.980Z,13.80
2022-10-22T22:59:21.941Z,13.80
2022-10-22T23:02:10.168Z,13.70
2022-10-22T23:04:57.178Z,13.70
2022-10-22T23:07:44.207Z,13.70
2022-10-22T23:10:32.747Z,13.60
2022-10-22T23:13:20.066Z,13.60
2022-10-22T23:16:08.593Z,13.50
2022-10-22T23:18:56.708Z,13.50
2022-10-22T23:21:47.490Z,13.50
2022-10-22T23:24:34.499Z,13.50
2022-10-22T23:27:23.154Z,13.50
2022-10-22T23:30:11.336Z,13.50
2022-10-22T23:32:59.316Z,13.40
2022-10-22T23:35:46.670Z,13.40
2022-10-22T23:38:34.657Z,13.40
2022-10-22T23:41:22.193Z,13.30
2022-10-22T23:44:12.093Z,13.30
2022-10-22T23:46:59.530Z,13.20
2022-10-22T23:49:46.608Z,13.20
2022-10-22T23:52:33.913Z,13.20
2022-10-22T23:55:21.226Z,13.20
2022-10-22T23:58:08.757Z,13.20
